This is the latest recevied weather packets stored in our database for station/object MARKET. If no packets are shown the sender has not sent any weather packets the latest 1 day(s).
| Time | Temp. | Humidity | Pressure | Rain* | Wind** | Luminosity | Snow |
|---|---|---|---|---|---|---|---|
| 1777992444 | 6.67° C | 60% | 1008 hPa | - | 3.58 m/s, 168° | - | - |
| 1777991255 | 5.56° C | 65% | 1008 hPa | - | 4.92 m/s, 174° | - | - |
| 1777990043 | 5° C | 67% | 1007.8 hPa | - | 1.79 m/s, 41° | - | - |
| 1777988843 | 5° C | 62% | 1007.6 hPa | - | 2.24 m/s, 12° | - | - |
| 1777987643 | 5° C | 67% | 1007.6 hPa | - | 1.79 m/s, 40° | - | - |
| 1777986443 | 5° C | 65% | 1007.6 hPa | - | 2.24 m/s, 2° | - | - |
| 1777985242 | 5° C | 67% | 1007.4 hPa | - | 4.92 m/s, 357° | - | - |
| 1777984043 | 5° C | 70% | 1007.2 hPa | - | 5.36 m/s, 348° | - | - |
| 1777982843 | 4.44° C | 73% | 1007 hPa | - | 6.71 m/s, 341° | - | - |
| 1777981643 | 5° C | 70% | 1006.9 hPa | - | 6.26 m/s, 336° | - | - |
| 1777980443 | 5° C | 68% | 1006.8 hPa | - | 7.15 m/s, 338° | - | - |
| 1777979242 | 5° C | 69% | 1006.6 hPa | - | 8.05 m/s, 330° | - | - |
| 1777978042 | 4.44° C | 74% | 1006.5 hPa | - | 7.15 m/s, 333° | - | - |
| 1777976842 | 4.44° C | 74% | 1006.3 hPa | - | 6.71 m/s, 334° | - | - |
| 1777975642 | 4.44° C | 73% | 1006.3 hPa | - | 7.6 m/s, 328° | - | - |
| 1777974442 | 4.44° C | 71% | 1006.1 hPa | - | 7.6 m/s, 323° | - | - |
| 1777973242 | 4.44° C | 69% | 1005.9 hPa | - | 7.6 m/s, 317° | - | - |
| 1777972042 | 4.44° C | 72% | 1005.7 hPa | - | 8.05 m/s, 314° | - | - |
| 1777970843 | 4.44° C | 70% | 1005.3 hPa | - | 9.39 m/s, 314° | - | - |
| 1777969642 | 4.44° C | 70% | 1005.1 hPa | - | 9.39 m/s, 313° | - | - |
| 1777968442 | 4.44° C | 70% | 1005 hPa | - | 8.49 m/s, 304° | - | - |
| 1777967241 | 4.44° C | 75% | 1005 hPa | - | 7.15 m/s, 301° | - | - |
| 1777966042 | 4.44° C | 75% | 1004.8 hPa | - | 7.15 m/s, 292° | - | - |
* Rain since midnight (hover to see other rain measurements)
** Current wind speed in m/s (hover to see current wind gust speed)